Home > Products > Valid Products > TAF

000
FTUS43 KMQT 172300
TAFCMX
TAF
KCMX 172333Z 1800/1824 05007KT P6SM SCT020
      TEMPO 1811/1814 BKN020
     FM181400 11007KT P6SM SCT250=



000
FTUS43 KMQT 172300
TAFSAW
TAF
KSAW 172333Z 1800/1824 01012KT P6SM OVC007
      TEMPO 1801/1802 SCT007 OVC010
     FM180200 02008KT P6SM OVC010
     FM180600 02005KT P6SM BKN020
     FM180900 03005KT P6SM SCT020
     FM181300 10007KT P6SM SCT250
      AMD LTD TO CLD VIS AND WIND 1802/1810=



000
FTUS43 KMQT 171900 AAB
TAFSAW
TAF AMD
KSAW 171938Z 1720/1818 01010G18KT P6SM SCT005 BKN010
      TEMPO 1720/1721 6SM BR BKN005
     FM180100 02007KT P6SM SCT025
     FM181300 08007KT P6SM SCT200
      AMD LTD TO CLD VIS AND WIND 1802/1810=



000
FTUS43 KMQT 171700 AAA
TAFSAW
TAF AMD
KSAW 171754Z 1718/1818 01010KT P6SM BKN010
      TEMPO 1718/1720 4SM BR BKN005
     FM180100 02007KT P6SM SCT025
     FM181300 08007KT P6SM SCT200
      AMD LTD TO CLD VIS AND WIND 1802/1810=



000
FTUS43 KMQT 171700
TAFCMX
TAF
KCMX 171734Z 1718/1818 08009KT P6SM VCSH OVC010
      TEMPO 1718/1719 5SM BR BKN003
     FM172000 06010KT P6SM SCT010 BKN030
     FM172300 04008KT P6SM SCT025
     FM180200 06005KT P6SM SKC
     FM181400 11007KT P6SM SCT200=



000
FTUS43 KMQT 171700
TAFSAW
TAF
KSAW 171734Z 1718/1818 34008KT P6SM OVC025
      TEMPO 1719/1721 4SM BR SCT003 BKN010
     FM180100 02007KT P6SM SCT025
     FM181300 08007KT P6SM SCT200
      AMD LTD TO CLD VIS AND WIND 1802/1810=



000
FTUS43 KMQT 171600 AAB
TAFCMX
TAF AMD
KCMX 171651Z 1717/1812 08009KT P6SM VCSH OVC010
      TEMPO 1717/1719 BKN003 BKN010
     FM172000 06010KT P6SM SCT010 BKN030
     FM172300 04008KT P6SM SCT025
     FM180200 06005KT P6SM SKC=



000
FTUS43 KMQT 171500 AAA
TAFCMX
TAF AMD
KCMX 171541Z 1716/1812 08009KT P6SM VCSH OVC020
      TEMPO 1716/1718 SCT003 BKN010
     FM172100 06010KT P6SM BKN030
     FM172300 04008KT P6SM SCT025
     FM180200 06005KT P6SM SKC=



000
FTUS43 KMQT 171100
TAFCMX
TAF
KCMX 171121Z 1712/1812 26004KT P6SM VCSH SCT004 BKN100
      TEMPO 1712/1714 BKN004
     FM171600 03012G18KT P6SM VCSH OVC020
     FM172300 02007KT P6SM SCT025=



000
FTUS43 KMQT 171100
TAFSAW
TAF
KSAW 171121Z 1712/1812 22005KT P6SM BKN070
     FM171900 02012G18KT P6SM OVC025
     FM180100 02007KT P6SM SCT025
      AMD LTD TO CLD VIS AND WIND 1802/1810=



000
FTUS43 KMQT 170500
TAFCMX
TAF
KCMX 170521Z 1706/1806 09008KT P6SM OVC004
     FM171500 03011KT P6SM VCSH OVC010
     FM172100 03010KT P6SM SCT020=



000
FTUS43 KMQT 170500
TAFSAW
TAF
KSAW 170521Z 1706/1806 VRB04KT P6SM BKN080
     FM171800 02014G19KT P6SM OVC010
     FM180000 36007KT P6SM OVC010
      AMD LTD TO CLD VIS AND WIND TIL 171000=



000
FTUS43 KMQT 170400 AAA
TAFCMX
TAF AMD
KCMX 170444Z 1705/1724 09008KT P6SM OVC004
     FM171300 03011KT P6SM VCSH OVC010=



000
FTUS43 KMQT 162300
TAFSAW
TAF
KSAW 162320Z 1700/1724 VRB04KT P6SM BKN080
     FM171700 02014G19KT P6SM OVC010
      AMD LTD TO CLD VIS AND WIND 1702/1710=



000
FTUS43 KMQT 162300
TAFCMX
TAF
KCMX 162320Z 1700/1724 27005KT P6SM BKN070
     FM170400 08006KT P6SM BKN060
     FM170900 VRB05KT P6SM BKN060
     FM171300 03011KT P6SM VCSH OVC010=



000
FTUS43 KMQT 162100 AAA
TAFCMX
TAF AMD
KCMX 162134Z 1622/1718 28012KT P6SM BKN080
     FM170200 06006KT P6SM BKN060
     FM170900 VRB05KT P6SM BKN060
     FM171300 03011KT P6SM VCSH OVC010=



000
FTUS43 KMQT 162000 AAA
TAFSAW
TAF AMD
KSAW 162020Z 1620/1718 27010G17KT P6SM SCT120
     FM170000 VRB04KT P6SM BKN080
     FM171700 02014G19KT P6SM OVC010
      AMD LTD TO CLD VIS AND WIND 1702/1710=



000
FTUS43 KMQT 161700
TAFSAW
TAF
KSAW 161726Z 1618/1718 22011G18KT P6SM SCT120
     FM170000 VRB04KT P6SM BKN080
     FM171700 02014G19KT P6SM OVC010
      AMD LTD TO CLD VIS AND WIND 1702/1710=



000
FTUS43 KMQT 161700
TAFCMX
TAF
KCMX 161726Z 1618/1718 27016G24KT P6SM BKN120
     FM170000 29008KT P6SM BKN080
     FM170200 06006KT P6SM BKN060
     FM170900 VRB05KT P6SM BKN060
     FM171300 03011KT P6SM VCSH OVC010=



000
FTUS43 KMQT 161100
TAFCMX
TAF
KCMX 161120Z 1612/1712 27011KT P6SM SCT120
     FM161500 27015G24KT P6SM SCT060
     FM170100 29007KT P6SM BKN060
     FM170400 08006KT P6SM BKN050=



000
FTUS43 KMQT 161100
TAFSAW
TAF
KSAW 161120Z 1612/1712 25007KT P6SM SCT150
     FM161500 24011G18KT P6SM SCT120
     FM170000 25005KT P6SM BKN060
      AMD LTD TO CLD VIS AND WIND 1702/1710=



000
FTUS43 KMQT 160500
TAFCMX
TAF
KCMX 160521Z 1606/1706 27012KT P6SM SKC
     FM161600 26014G24KT P6SM SCT060
     FM170100 27005KT P6SM BKN060
     FM170400 10007KT P6SM BKN060=



000
FTUS43 KMQT 160500
TAFSAW
TAF
KSAW 160521Z 1606/1706 27004KT P6SM SKC
     FM161500 24007KT P6SM BKN060
     FM170000 VRB03KT P6SM BKN060
      AMD LTD TO CLD VIS AND WIND TIL 161000=



000
FTUS43 KMQT 152300
TAFSAW
TAF
KSAW 152320Z 1600/1624 03007KT P6SM BKN040
     FM160100 28004KT P6SM SKC
     FM161500 24007KT P6SM BKN060
      AMD LTD TO CLD VIS AND WIND 1602/1610=



000
FTUS43 KMQT 152300
TAFCMX
TAF
KCMX 152320Z 1600/1624 27012KT P6SM SKC
     FM161600 26014G24KT P6SM SCT060=



000
FTUS43 KMQT 151700
TAFSAW
TAF
KSAW 151731Z 1518/1618 34007KT P6SM BKN040
     FM160100 28004KT P6SM SKC
      AMD LTD TO CLD VIS AND WIND 1602/1610=



000
FTUS43 KMQT 151700
TAFCMX
TAF
KCMX 151731Z 1518/1618 31012KT P6SM BKN025
     FM152000 29012KT P6SM SCT080=



000
FTUS43 KMQT 151300 AAA
TAFCMX
TAF AMD
KCMX 151313Z 1513/1612 28008KT P6SM BKN003
     FM151500 29009KT P6SM SCT003 BKN080
     FM151600 29010KT P6SM SCT080=



000
FTUS43 KMQT 151100
TAFSAW
TAF
KSAW 151121Z 1512/1612 34007KT P6SM SCT040
     FM151500 35008KT P6SM BKN040
     FM160100 28004KT P6SM SKC
      AMD LTD TO CLD VIS AND WIND 1602/1610=



000
FTUS43 KMQT 151100
TAFCMX
TAF
KCMX 151121Z 1512/1612 29010KT P6SM SCT040=



000
FTUS43 KMQT 150500
TAFCMX
TAF
KCMX 150521Z 1506/1606 28010KT P6SM SCT040=



000
FTUS43 KMQT 150500
TAFSAW
TAF
KSAW 150521Z 1506/1606 28005KT P6SM SCT040
     FM151500 33007KT P6SM BKN040
     FM160000 28004KT P6SM SCT040
      AMD LTD TO CLD VIS AND WIND TIL 151000=



    US Dept of Commerce
    National Oceanic and Atmospheric Administration
    National Weather Service
    1325 East West Highway
    Silver Spring, MD 20910
    Page Author: NWS Internet Services Team
Disclaimer
Information Quality
Credits
Glossary
Privacy Policy
Freedom of Information Act (FOIA)
About Us
Career Opportunities